Latest Weather Observations for Inner Beacon

IDQ60901

Issued at 3:21 pm EST Saturday 5 December 2020 (issued every 10 minutes, with the page automatically refreshed every 10 minutes)

About weather observations | Map of Brisbane area stations | Latest observations for Brisbane area | Other Formats
Station Details ID: 040926 Name: INNER RECIPROCAL MARKER Lat: -27.26 Lon: 153.24 Height: 10.0 m
Data from the previous 72 hours. | See also: Recent months at Inner Beacon
Date/Time
EST
Temp
°C
App
Temp
°C
Dew
Point
°C
Rel
Hum
%
Delta-T
°C
Wind Press
QNH
hPa
Press
MSL
hPa
Rain since
9am
mm
Dir  Spd
km/h
Gust
km/h
Spd
kts
Gust
kts
05/03:00pm - - - - - NNE 41 46 22 25 - - -
05/02:30pm - - - - - NNE 39 44 21 24 - - -
05/02:00pm - - - - - NNE 35 41 19 22 - - -
05/01:30pm - - - - - NNE 33 41 18 22 - - -
05/01:00pm - - - - - NNE 32 37 17 20 - - -
05/12:30pm - - - - - N 33 37 18 20 - - -
05/12:00pm - - - - - N 32 37 17 20 - - -
05/11:30am - - - - - N 30 33 16 18 - - -
05/11:00am - - - - - NNE 32 35 17 19 - - -
05/10:30am - - - - - N 30 33 16 18 - - -
05/10:00am - - - - - NNE 28 32 15 17 - - -
05/09:30am - - - - - N 24 28 13 15 - - -
05/09:00am - - - - - NNE 26 30 14 16 - - -
05/08:30am - - - - - N 28 32 15 17 - - -
05/08:00am - - - - - N 26 30 14 16 - - -
05/07:30am - - - - - N 24 30 13 16 - - -
05/07:00am - - - - - N 26 30 14 16 - - -
05/06:30am - - - - - N 24 32 13 17 - - -
05/06:00am - - - - - N 28 32 15 17 - - -
05/05:30am - - - - - N 28 32 15 17 - - -
05/05:00am - - - - - N 28 32 15 17 - - -
05/04:30am - - - - - N 28 33 15 18 - - -
05/04:00am - - - - - N 28 33 15 18 - - -
05/03:30am - - - - - N 30 33 16 18 - - -
05/03:00am - - - - - N 32 37 17 20 - - -
05/02:30am - - - - - N 33 39 18 21 - - -
05/02:00am - - - - - N 35 39 19 21 - - -
05/01:30am - - - - - N 33 37 18 20 - - -
05/01:00am - - - - - N 35 43 19 23 - - -
05/12:30am - - - - - N 35 43 19 23 - - -
05/12:00am - - - - - N 35 43 19 23 - - -
 
Date/Time
EST
Temp
°C
App
Temp
°C
Dew
Point
°C
Rel
Hum
%
Delta-T
°C
Wind Press
QNH
hPa
Press
MSL
hPa
Rain since
9am
mm
Dir  Spd
km/h
Gust
km/h
Spd
kts
Gust
kts
04/11:30pm - - - - - N 35 41 19 22 - - -
04/11:00pm - - - - - N 32 39 17 21 - - -
04/10:30pm - - - - - N 39 46 21 25 - - -
04/10:00pm - - - - - N 24 30 13 16 - - -
04/09:30pm - - - - - N 24 28 13 15 - - -
04/09:00pm - - - - - N 28 33 15 18 - - -
04/08:30pm - - - - - N 30 33 16 18 - - -
04/08:00pm - - - - - N 30 35 16 19 - - -
04/07:30pm - - - - - N 30 35 16 19 - - -
04/07:00pm - - - - - N 33 39 18 21 - - -
04/06:30pm - - - - - N 33 37 18 20 - - -
04/06:00pm - - - - - N 35 41 19 22 - - -
04/05:30pm - - - - - N 33 37 18 20 - - -
04/05:00pm - - - - - N 33 39 18 21 - - -
04/04:30pm - - - - - N 30 35 16 19 - - -
04/04:00pm - - - - - N 30 35 16 19 - - -
04/03:30pm - - - - - NNE 30 33 16 18 - - -
04/03:00pm - - - - - NNE 30 35 16 19 - - -
04/02:30pm - - - - - NNE 33 39 18 21 - - -
04/02:00pm - - - - - NNE 32 39 17 21 - - -
04/01:30pm - - - - - NNE 32 35 17 19 - - -
04/01:00pm - - - - - NNE 32 37 17 20 - - -
04/12:30pm - - - - - NNE 28 33 15 18 - - -
04/12:00pm - - - - - NNE 26 30 14 16 - - -
04/11:30am - - - - - NNE 30 33 16 18 - - -
04/11:00am - - - - - N 28 33 15 18 - - -
04/10:30am - - - - - N 26 28 14 15 - - -
04/10:00am - - - - - N 19 22 10 12 - - -
04/09:30am - - - - - NW 13 17 7 9 - - -
04/09:00am - - - - - NNW 17 20 9 11 - - -
04/08:30am - - - - - NNW 13 15 7 8 - - -
04/08:00am - - - - - NW 11 13 6 7 - - -
04/07:30am - - - - - NNW 6 7 3 4 - - -
04/07:00am - - - - - NW 2 6 1 3 - - -
04/06:30am - - - - - CALM 0 0 0 0 - - -
04/06:00am - - - - - CALM 0 0 0 0 - - -
04/05:30am - - - - - SSE 6 7 3 4 - - -
04/05:00am - - - - - SSE 4 6 2 3 - - -
04/04:30am - - - - - SE 4 6 2 3 - - -
04/04:00am - - - - - SE 6 6 3 3 - - -
04/03:30am - - - - - SE 4 7 2 4 - - -
04/03:00am - - - - - CALM 0 0 0 0 - - -
04/02:30am - - - - - CALM 0 0 0 0 - - -
04/02:00am - - - - - CALM 0 0 0 0 - - -
04/01:30am - - - - - CALM 0 0 0 0 - - -
04/01:00am - - - - - CALM 0 0 0 0 - - -
04/12:30am - - - - - CALM 0 0 0 0 - - -
04/12:00am - - - - - ENE 7 7 4 4 - - -
 
Date/Time
EST
Temp
°C
App
Temp
°C
Dew
Point
°C
Rel
Hum
%
Delta-T
°C
Wind Press
QNH
hPa
Press
MSL
hPa
Rain since
9am
mm
Dir  Spd
km/h
Gust
km/h
Spd
kts
Gust
kts
03/11:30pm - - - - - E 4 6 2 3 - - -
03/11:00pm - - - - - ENE 7 9 4 5 - - -
03/10:30pm - - - - - NE 6 7 3 4 - - -
03/10:00pm - - - - - NE 13 13 7 7 - - -
03/09:30pm - - - - - NE 15 15 8 8 - - -
03/09:00pm - - - - - NE 13 15 7 8 - - -
03/08:30pm - - - - - ENE 13 15 7 8 - - -
03/08:00pm - - - - - ENE 9 13 5 7 - - -
03/07:30pm - - - - - E 9 13 5 7 - - -
03/07:00pm - - - - - ENE 13 15 7 8 - - -
03/06:30pm - - - - - E 15 17 8 9 - - -
03/06:00pm - - - - - NNE 15 19 8 10 - - -
03/05:30pm - - - - - NNE 15 17 8 9 - - -
03/05:00pm - - - - - NNE 15 17 8 9 - - -
03/04:30pm - - - - - N 15 17 8 9 - - -
03/04:00pm - - - - - NNE 17 20 9 11 - - -
03/03:30pm - - - - - N 17 20 9 11 - - -
03/03:00pm - - - - - NNE 17 20 9 11 - - -
03/02:30pm - - - - - NNE 15 17 8 9 - - -
03/02:00pm - - - - - NNE 15 17 8 9 - - -
03/01:30pm - - - - - N 17 19 9 10 - - -
03/01:00pm - - - - - N 17 19 9 10 - - -
03/12:30pm - - - - - N 17 20 9 11 - - -
03/12:00pm - - - - - N 19 22 10 12 - - -
03/11:30am - - - - - N 19 22 10 12 - - -
03/11:00am - - - - - N 19 22 10 12 - - -
03/10:30am - - - - - N 19 22 10 12 - - -
03/10:00am - - - - - N 17 19 9 10 - - -
03/09:30am - - - - - N 17 19 9 10 - - -
03/09:00am - - - - - N 17 20 9 11 - - -
03/08:30am - - - - - NNE 17 20 9 11 - - -
03/08:00am - - - - - NE 22 26 12 14 - - -
03/07:30am - - - - - NE 19 20 10 11 - - -
03/07:00am - - - - - NE 17 20 9 11 - - -
03/06:30am - - - - - NE 19 20 10 11 - - -
03/06:00am - - - - - NE 19 22 10 12 - - -
03/05:30am - - - - - NE 19 20 10 11 - - -
03/05:00am - - - - - NE 17 20 9 11 - - -
03/04:30am - - - - - NE 17 20 9 11 - - -
03/04:00am - - - - - NE 13 15 7 8 - - -
03/03:30am - - - - - NE 13 15 7 8 - - -
03/03:00am - - - - - ENE 11 13 6 7 - - -
03/02:30am - - - - - CALM 0 0 0 0 - - -
03/02:00am - - - - - CALM 0 4 0 2 - - -
03/01:30am - - - - - CALM 0 6 0 3 - - -
03/01:00am - - - - - NE 7 9 4 5 - - -
03/12:30am - - - - - CALM 0 4 0 2 - - -
03/12:00am - - - - - E 9 13 5 7 - - -
 
Date/Time
EST
Temp
°C
App
Temp
°C
Dew
Point
°C
Rel
Hum
%
Delta-T
°C
Wind Press
QNH
hPa
Press
MSL
hPa
Rain since
9am
mm
Dir  Spd
km/h
Gust
km/h
Spd
kts
Gust
kts
02/11:30pm - - - - - ENE 11 17 6 9 - - -
02/11:00pm - - - - - E 15 19 8 10 - - -
02/10:30pm - - - - - E 19 22 10 12 - - -
02/10:00pm - - - - - E 15 19 8 10 - - -
02/09:30pm - - - - - ENE 15 17 8 9 - - -
02/09:00pm - - - - - ENE 17 19 9 10 - - -
02/08:30pm - - - - - NE 17 22 9 12 - - -
02/08:00pm - - - - - NNE 19 22 10 12 - - -
02/07:30pm - - - - - NNE 19 22 10 12 - - -
02/07:00pm - - - - - NE 17 19 9 10 - - -
02/06:30pm - - - - - NNE 20 24 11 13 - - -
02/06:00pm - - - - - N 24 32 13 17 - - -
02/05:30pm - - - - - N 30 35 16 19 - - -
02/05:00pm - - - - - N 30 35 16 19 - - -
02/04:30pm - - - - - N 35 43 19 23 - - -
02/04:00pm - - - - - N 33 37 18 20 - - -
02/03:30pm - - - - - N 35 41 19 22 - - -

Latest Capital City Observations: Canberra | Sydney | Melbourne | Brisbane | Adelaide | Perth | Hobart | Darwin

Other formats

Comma delimited format used in spreadsheet applications
http://www.bom.gov.au/fwo/IDQ60901/IDQ60901.94590.axf

JavaScript Object Notation format (JSON) in row-major order
http://www.bom.gov.au/fwo/IDQ60901/IDQ60901.94590.json

Data quality

Most of these data are generated automatically and are frequently updated. Quality checks on data are not normally performed. It is possible for incorrect values to appear. Refer to information at About Latest Weather Observations and please check the disclaimer before using these data.